Time;durP1;ratioP1;P1;durP2;ratioP2;P2;SDS_P1;SDS_P2;PMS_P1;PMS_P2;Temp;Humidity;BMP_temperature;BMP_pressure;BME280_temperature;BME280_humidity;BME280_pressure;Samples;Min_cycle;Max_cycle;Signal;HPM_P1;HPM_P2
2023/01/11 00:01:37;;;;;;;2.00;1.30;;;;;;;13.18;64.29;100668.19;4962072;28;114036;-67
2023/01/11 00:04:04;;;;;;;3.22;1.30;;;;;;;13.22;63.97;100660.91;4963085;28;123738;-67
2023/01/11 00:06:31;;;;;;;2.28;1.35;;;;;;;13.24;63.91;100653.69;4964660;28;123986;-67
2023/01/11 00:08:58;;;;;;;3.35;1.30;;;;;;;13.26;64.08;100657.13;4962754;28;115590;-67
2023/01/11 00:11:25;;;;;;;3.30;1.58;;;;;;;13.28;63.99;100659.69;4960367;28;114656;-67
2023/01/11 00:13:52;;;;;;;2.95;1.30;;;;;;;13.30;63.97;100658.69;4967418;28;123860;-67
2023/01/11 00:16:19;;;;;;;3.95;1.50;;;;;;;13.31;64.10;100665.72;4960462;28;125139;-68
2023/01/11 00:18:46;;;;;;;4.75;1.30;;;;;;;13.35;64.03;100667.22;4961973;28;114690;-68
2023/01/11 00:21:14;;;;;;;2.17;1.40;;;;;;;13.39;64.05;100651.94;4958182;28;114003;-68
2023/01/11 00:23:41;;;;;;;2.67;1.40;;;;;;;13.40;63.94;100654.53;4955681;28;123830;-67
2023/01/11 00:26:11;;;;;;;2.35;1.05;;;;;;;13.42;63.94;100663.25;4958514;28;123344;-68
2023/01/11 00:28:39;;;;;;;4.13;1.27;;;;;;;13.46;63.90;100652.44;4947335;28;115020;-68
2023/01/11 00:31:06;;;;;;;3.22;1.08;;;;;;;13.47;63.99;100635.53;4955879;28;114202;-68
2023/01/11 00:33:34;;;;;;;3.28;1.20;;;;;;;13.50;64.02;100635.34;4961675;28;124534;-65
2023/01/11 00:36:01;;;;;;;1.60;0.98;;;;;;;13.52;63.93;100641.44;4959060;28;124527;-65
2023/01/11 00:38:43;;;;;;;3.50;1.60;;;;;;;13.55;63.83;100630.63;4954043;28;114464;-65
2023/01/11 00:49:31;;;;;;;1.52;1.00;;;;;;;13.63;63.89;100628.31;4956801;28;114733;-68
2023/01/11 00:51:59;;;;;;;2.05;1.08;;;;;;;13.66;63.73;100617.50;4959669;28;113548;-68
2023/01/11 00:54:26;;;;;;;2.05;1.25;;;;;;;13.69;63.72;100611.97;4959391;28;125136;-68
2023/01/11 00:56:53;;;;;;;2.25;1.15;;;;;;;13.72;63.84;100617.13;4962612;28;124562;-68
2023/01/11 00:59:20;;;;;;;2.40;1.10;;;;;;;13.75;63.78;100611.63;4963275;28;115041;-68
2023/01/11 01:01:47;;;;;;;1.38;1.08;;;;;;;13.79;63.70;100613.13;4960313;28;114920;-68
2023/01/11 01:04:14;;;;;;;3.33;1.02;;;;;;;13.81;63.66;100608.56;4960135;28;123915;-68
2023/01/11 01:06:41;;;;;;;1.98;1.00;;;;;;;13.83;63.64;100609.31;4957462;28;125550;-67
2023/01/11 01:09:08;;;;;;;1.85;1.02;;;;;;;13.85;63.58;100605.72;4955769;28;115513;-67
2023/01/11 01:11:35;;;;;;;2.08;1.08;;;;;;;13.88;63.70;100608.19;4959954;28;113802;-67
2023/01/11 01:16:48;;;;;;;;;;;;;;;13.87;63.64;100609.13;4956019;28;124150;-67
2023/01/11 01:19:15;;;;;;;3.65;1.35;;;;;;;13.89;63.53;100609.91;4954610;28;113805;-67
2023/01/11 01:21:42;;;;;;;2.35;1.10;;;;;;;13.89;63.66;100607.25;4961169;28;114120;-68
2023/01/11 01:24:09;;;;;;;2.90;1.10;;;;;;;13.88;63.84;100616.16;4958730;28;125438;-67
2023/01/11 01:26:36;;;;;;;2.50;1.10;;;;;;;13.89;64.00;100609.91;4957931;28;124725;-67
2023/01/11 01:29:04;;;;;;;2.97;1.13;;;;;;;13.90;64.09;100608.94;4961469;28;113430;-67
2023/01/11 01:31:31;;;;;;;3.78;1.20;;;;;;;13.90;64.16;100614.25;4956820;28;113654;-65
2023/01/11 01:33:58;;;;;;;2.85;1.15;;;;;;;13.91;64.06;100610.66;4958731;28;124330;-66
2023/01/11 01:36:25;;;;;;;2.22;1.20;;;;;;;13.90;64.17;100608.94;4954350;28;123467;-65
2023/01/11 01:38:52;;;;;;;1.65;1.20;;;;;;;13.89;64.31;100607.25;4952714;28;114855;-66
2023/01/11 01:41:19;;;;;;;2.45;1.20;;;;;;;13.88;64.33;100616.16;4962552;28;113810;-66
2023/01/11 01:43:48;;;;;;;2.15;1.27;;;;;;;13.88;64.41;100610.84;4957462;28;124747;-65
2023/01/11 01:46:17;;;;;;;2.88;1.20;;;;;;;13.89;64.48;100615.22;4956203;28;126983;-66
2023/01/11 01:48:51;;;;;;;2.90;1.00;;;;;;;13.89;64.62;100609.91;4955717;28;115542;-66
2023/01/11 01:51:24;;;;;;;1.95;1.20;;;;;;;13.87;64.57;100609.13;4959741;28;114320;-66
2023/01/11 01:53:54;;;;;;;3.10;1.23;;;;;;;13.86;64.64;100602.94;4954787;28;123755;-66
2023/01/11 01:56:30;;;;;;;2.97;1.05;;;;;;;13.87;64.73;100609.13;4964254;28;123768;-66
2023/01/11 01:59:03;;;;;;;3.72;1.23;;;;;;;13.87;64.57;100604.66;4957258;28;114080;-67
2023/01/11 02:01:48;;;;;;;1.73;0.90;;;;;;;13.87;64.77;100603.81;4960857;28;114899;-67
2023/01/11 02:04:36;;;;;;;2.15;0.90;;;;;;;13.87;64.88;100609.13;4958881;28;127838;-67
2023/01/11 02:07:08;;;;;;;2.85;1.10;;;;;;;13.88;65.17;100611.72;4954446;28;124379;-67
2023/01/11 02:09:45;;;;;;;1.73;0.85;;;;;;;13.88;64.92;100605.50;4956130;28;115154;-67
2023/01/11 02:12:14;;;;;;;1.65;1.00;;;;;;;13.89;64.98;100610.75;4960831;28;113800;-66
2023/01/11 02:14:43;;;;;;;1.75;0.88;;;;;;;13.90;65.02;100603.59;4956527;28;124347;-67
2023/01/11 02:17:11;;;;;;;1.92;1.02;;;;;;;13.92;65.11;100607.03;4957061;28;123974;-67
2023/01/11 02:20:20;;;;;;;1.50;1.00;;;;;;;13.93;65.08;100611.41;4960947;28;114638;-66
2023/01/11 02:22:53;;;;;;;1.20;0.80;;;;;;;13.93;65.17;100603.44;4977317;28;113995;-67
2023/01/11 02:25:51;;;;;;;2.33;1.00;;;;;;;13.94;65.29;100594.50;4975094;28;126533;-67
2023/01/11 02:28:25;;;;;;;1.00;0.77;;;;;;;13.94;65.29;100594.50;4962961;28;123800;-67
2023/01/11 02:31:15;;;;;;;2.40;1.00;;;;;;;13.95;65.31;100596.19;4953287;28;114917;-66
2023/01/11 02:34:04;;;;;;;1.65;1.00;;;;;;;13.97;65.38;100602.28;4973377;28;113341;-67
2023/01/11 02:36:49;;;;;;;2.20;0.85;;;;;;;13.97;65.22;100599.59;4959574;28;123960;-67
2023/01/11 02:39:31;;;;;;;1.13;0.80;;;;;;;13.97;65.34;100589.81;4953803;28;124592;-67
2023/01/11 02:45:26;;;;;;;1.52;0.90;;;;;;;14.00;65.40;100578.13;4954203;28;114883;-67
2023/01/11 02:48:00;;;;;;;1.90;0.90;;;;;;;14.00;65.34;100573.66;4955682;28;124167;-67
2023/01/11 02:50:33;;;;;;;1.63;0.88;;;;;;;14.03;65.60;100577.91;4958218;28;123241;-66
2023/01/11 02:53:23;;;;;;;0.95;0.70;;;;;;;14.03;65.46;100572.59;4956347;28;116215;-67
2023/01/11 02:55:57;;;;;;;0.75;0.68;;;;;;;14.05;65.61;100575.16;4980103;28;114808;-67
2023/01/11 02:58:28;;;;;;;1.87;0.90;;;;;;;14.06;65.55;100571.56;4955762;28;123908;-67
2023/01/11 03:00:57;;;;;;;1.35;0.75;;;;;;;14.08;65.58;100570.50;4958385;28;124514;-67
2023/01/11 03:03:28;;;;;;;1.23;0.73;;;;;;;14.11;65.71;100575.63;4961396;28;114958;-67
2023/01/11 03:06:12;;;;;;;3.70;0.80;;;;;;;14.10;65.72;100568.59;4960774;28;112940;-67
2023/01/11 03:08:52;;;;;;;1.20;0.70;;;;;;;14.12;65.61;100558.69;4972704;28;124012;-67
2023/01/11 03:14:49;;;;;;;1.65;0.80;;;;;;;14.13;65.75;100568.41;4956606;28;114900;-67
2023/01/11 03:17:44;;;;;;;1.40;0.95;;;;;;;14.14;65.90;100564.75;4956037;28;114046;-67
2023/01/11 03:20:45;;;;;;;2.50;0.77;;;;;;;14.15;65.60;100558.50;4959271;28;123711;-67
2023/01/11 03:23:33;;;;;;;1.55;0.85;;;;;;;14.18;65.84;100560.97;4959369;28;125168;-67
2023/01/11 03:26:45;;;;;;;1.30;0.75;;;;;;;14.19;65.80;100557.34;4931811;28;113297;-67
2023/01/11 03:29:14;;;;;;;1.85;0.82;;;;;;;14.20;65.76;100559.06;4960446;28;113339;-67
2023/01/11 03:31:53;;;;;;;1.05;0.80;;;;;;;14.21;65.86;100563.41;4974299;28;123368;-67
2023/01/11 03:34:31;;;;;;;2.25;0.80;;;;;;;14.24;65.67;100564.16;4957799;28;123688;-67
2023/01/11 03:37:08;;;;;;;0.88;0.73;;;;;;;14.25;66.09;100563.22;4952864;28;115037;-67
2023/01/11 03:39:55;;;;;;;1.00;0.70;;;;;;;14.27;65.79;100574.63;4938401;28;115384;-67
2023/01/11 03:42:24;;;;;;;3.22;0.80;;;;;;;14.28;65.83;100561.22;4966296;28;124067;-67
2023/01/11 03:44:55;;;;;;;1.35;0.80;;;;;;;14.30;65.98;100558.47;4962698;28;123844;-67
2023/01/11 03:47:25;;;;;;;1.60;0.80;;;;;;;14.32;66.26;100569.88;4962477;28;114382;-67
2023/01/11 03:50:02;;;;;;;0.93;0.68;;;;;;;14.33;65.95;100563.56;4956892;28;113646;-66
2023/01/11 03:52:33;;;;;;;1.33;0.75;;;;;;;14.34;66.11;100565.28;4945213;28;124489;-67
2023/01/11 03:55:03;;;;;;;1.88;0.80;;;;;;;14.34;65.86;100571.47;4949801;28;123913;-67
2023/01/11 03:57:34;;;;;;;1.50;0.60;;;;;;;14.35;66.07;100573.19;4963018;28;114288;-67
2023/01/11 04:00:01;;;;;;;0.90;0.77;;;;;;;14.37;65.98;100573.06;4954904;28;113908;-67
2023/01/11 04:02:38;;;;;;;1.15;0.75;;;;;;;14.37;66.13;100575.72;4958818;28;124835;-67
2023/01/11 04:05:07;;;;;;;0.90;0.70;;;;;;;14.39;66.17;100573.81;4946799;28;122691;-67
2023/01/11 04:07:34;;;;;;;0.95;0.73;;;;;;;14.40;66.17;100564.88;4963885;28;114111;-67
2023/01/11 04:10:02;;;;;;;0.70;0.52;;;;;;;14.41;66.03;100567.47;4962882;28;112207;-66
2023/01/11 04:12:29;;;;;;;1.05;0.65;;;;;;;14.43;66.04;100564.69;4962596;28;124864;-67
2023/01/11 04:14:56;;;;;;;0.77;0.68;;;;;;;14.43;66.41;100564.69;4960744;28;125533;-67
2023/01/11 04:17:23;;;;;;;0.90;0.70;;;;;;;14.44;66.19;100577.03;4961293;28;114116;-67
2023/01/11 04:19:50;;;;;;;1.13;0.70;;;;;;;14.44;66.18;100571.72;4966006;28;114035;-67
2023/01/11 04:22:17;;;;;;;2.13;0.70;;;;;;;14.45;66.17;100578.78;4961202;28;124005;-67
2023/01/11 04:24:44;;;;;;;1.35;0.70;;;;;;;14.47;66.34;100576.84;4958094;28;124708;-67
2023/01/11 04:27:11;;;;;;;0.60;0.60;;;;;;;14.50;66.17;100586.44;4956150;28;114946;-67
2023/01/11 04:29:38;;;;;;;0.82;0.60;;;;;;;14.50;66.14;100587.28;4960952;28;114606;-67
2023/01/11 04:32:05;;;;;;;0.70;0.70;;;;;;;14.51;66.36;100583.69;4958332;28;124305;-67
2023/01/11 04:34:32;;;;;;;0.90;0.60;;;;;;;14.52;66.23;100585.41;4962540;28;123766;-67
2023/01/11 04:36:59;;;;;;;0.75;0.63;;;;;;;14.53;66.35;100580.94;4964349;28;113218;-67
2023/01/11 04:39:26;;;;;;;0.70;0.65;;;;;;;14.54;66.35;100583.50;4956609;28;114491;-67
2023/01/11 04:44:39;;;;;;;0.98;0.70;;;;;;;14.55;66.39;100590.53;4948282;28;123792;-67
2023/01/11 04:47:06;;;;;;;2.35;0.80;;;;;;;14.56;66.46;100586.91;4956349;28;114336;-67
2023/01/11 04:49:33;;;;;;;1.70;0.77;;;;;;;14.58;66.36;100595.69;4960781;28;114298;-67
2023/01/11 04:52:00;;;;;;;1.27;0.80;;;;;;;14.59;66.40;100589.38;4962684;28;124854;-67
2023/01/11 04:54:27;;;;;;;0.95;0.80;;;;;;;14.62;66.47;100590.13;4950980;28;124664;-67
2023/01/11 04:56:54;;;;;;;1.20;0.80;;;;;;;14.63;66.47;100594.53;4964123;28;114800;-67
2023/01/11 04:59:21;;;;;;;1.85;0.80;;;;;;;14.65;66.43;100587.28;4961919;28;114557;-67
2023/01/11 05:01:48;;;;;;;1.52;0.90;;;;;;;14.66;66.32;100586.34;4957828;28;123132;-67
2023/01/11 05:04:15;;;;;;;1.65;1.00;;;;;;;14.68;66.51;100584.44;4945107;28;122860;-67
2023/01/11 05:06:43;;;;;;;1.13;0.90;;;;;;;14.69;66.43;100586.13;4962374;28;114173;-67
2023/01/11 05:09:12;;;;;;;1.60;0.90;;;;;;;14.69;66.51;100602.13;4952901;28;112860;-67
2023/01/11 05:11:40;;;;;;;1.13;0.95;;;;;;;14.71;66.39;100600.19;4962252;28;124023;-67
2023/01/11 05:14:07;;;;;;;1.35;1.02;;;;;;;14.71;66.54;100605.53;4963779;28;123515;-67
2023/01/11 05:16:35;;;;;;;2.05;0.98;;;;;;;14.73;66.64;100608.94;4962267;28;115312;-67
2023/01/11 05:19:03;;;;;;;1.48;1.08;;;;;;;14.76;66.64;100603.41;4955557;28;114580;-67
2023/01/11 05:21:34;;;;;;;2.03;1.10;;;;;;;14.76;66.69;100601.59;4962299;28;124241;-67
2023/01/11 05:24:03;;;;;;;2.38;1.20;;;;;;;14.80;66.72;100615.59;4945235;28;124404;-67
2023/01/11 05:26:34;;;;;;;1.90;1.20;;;;;;;14.81;66.60;100611.97;4957937;28;114947;-67
2023/01/11 05:29:05;;;;;;;1.95;1.30;;;;;;;14.83;66.67;100610.06;4959319;28;114989;-67
2023/01/11 05:31:33;;;;;;;2.17;1.30;;;;;;;14.86;66.69;100615.19;4970540;28;124931;-68
2023/01/11 05:34:00;;;;;;;2.03;1.20;;;;;;;14.87;66.70;100616.91;4967105;28;124416;-67
2023/01/11 05:36:28;;;;;;;4.75;1.48;;;;;;;14.89;66.72;100620.31;4968102;28;112858;-68
2023/01/11 05:38:56;;;;;;;1.30;1.08;;;;;;;14.91;66.47;100625.53;4976302;28;114757;-67
2023/01/11 05:41:25;;;;;;;1.80;1.30;;;;;;;14.93;66.67;100627.13;4964212;28;124550;-68
2023/01/11 05:46:41;;;;;;;3.78;1.85;;;;;;;14.97;66.53;100623.34;4951891;28;114767;-67
2023/01/11 05:49:10;;;;;;;3.10;1.70;;;;;;;15.00;66.58;100616.94;4962961;28;113870;-68
2023/01/11 05:51:37;;;;;;;2.10;1.75;;;;;;;15.01;66.49;100623.13;4956001;28;124478;-67
2023/01/11 05:54:06;;;;;;;2.40;1.95;;;;;;;15.01;66.69;100623.13;4958000;28;123040;-67
2023/01/11 05:56:33;;;;;;;4.88;2.10;;;;;;;15.02;66.50;100624.84;4959099;28;114876;-67
2023/01/11 05:59:02;;;;;;;4.18;2.40;;;;;;;15.03;66.19;100626.53;4963243;28;113892;-68
2023/01/11 06:01:31;;;;;;;3.53;2.60;;;;;;;15.04;66.37;100622.91;4962155;28;124382;-68
2023/01/11 06:03:58;;;;;;;4.03;2.58;;;;;;;15.02;66.52;100616.84;4960788;28;123442;-68
2023/01/11 06:06:25;;;;;;;5.07;2.90;;;;;;;15.02;66.39;100616.84;4966956;28;115521;-68
2023/01/11 06:08:52;;;;;;;4.68;2.90;;;;;;;15.03;66.24;100621.19;4955741;28;114097;-68
2023/01/11 06:11:19;;;;;;;5.15;3.13;;;;;;;15.03;66.23;100621.19;4955253;28;124568;-68
2023/01/11 06:13:46;;;;;;;6.38;3.10;;;;;;;15.03;66.17;100621.19;4962493;28;123323;-68
2023/01/11 06:16:18;;;;;;;4.75;3.50;;;;;;;15.03;66.18;100621.19;4964943;28;114580;-68
2023/01/11 06:18:48;;;;;;;5.53;3.60;;;;;;;15.05;66.25;100624.59;4959617;28;115017;-68
2023/01/11 06:21:16;;;;;;;6.72;3.55;;;;;;;15.05;66.27;100619.28;4960295;28;124391;-68
2023/01/11 06:23:46;;;;;;;6.03;4.03;;;;;;;15.04;66.13;100630.91;4967672;28;124445;-68
2023/01/11 06:26:15;;;;;;;6.07;4.05;;;;;;;15.04;66.13;100638.91;4957187;28;114049;-68
2023/01/11 06:28:43;;;;;;;6.28;3.42;;;;;;;15.05;66.22;100645.94;4953864;28;113781;-68
2023/01/11 06:31:10;;;;;;;7.10;3.10;;;;;;;15.03;65.97;100658.53;4964708;28;124301;-68
2023/01/11 06:33:37;;;;;;;7.38;2.55;;;;;;;14.99;65.70;100656.09;4961215;28;125156;-68
2023/01/11 06:36:07;;;;;;;10.20;2.72;;;;;;;14.94;65.45;100668.88;4958948;28;114850;-68
2023/01/11 06:38:36;;;;;;;9.05;2.63;;;;;;;14.90;65.30;100680.69;4962706;28;115208;-68
2023/01/11 06:41:07;;;;;;;12.75;2.63;;;;;;;14.84;65.23;100691.75;4960417;28;125751;-68
2023/01/11 06:43:35;;;;;;;10.20;1.80;;;;;;;14.79;65.09;100691.22;4961072;28;124046;-67
2023/01/11 06:46:03;;;;;;;11.70;2.38;;;;;;;14.75;64.86;100697.72;4953166;28;114709;-67
2023/01/11 06:48:30;;;;;;;11.88;2.10;;;;;;;14.69;64.68;100693.63;4954775;28;114889;-68
2023/01/11 06:50:58;;;;;;;16.52;2.00;;;;;;;14.64;64.70;100716.19;4959924;28;124669;-67
2023/01/11 06:53:26;;;;;;;14.00;2.22;;;;;;;14.59;64.43;100713.81;4966571;28;123964;-68
2023/01/11 06:55:57;;;;;;;11.68;2.15;;;;;;;14.56;64.42;100719.28;4957873;28;115493;-68
2023/01/11 06:58:25;;;;;;;11.20;2.13;;;;;;;14.50;64.41;100725.88;4961195;28;114802;-68
2023/01/11 07:00:54;;;;;;;8.13;1.98;;;;;;;14.46;64.35;100729.69;4958463;28;123805;-68
2023/01/11 07:03:23;;;;;;;9.13;2.13;;;;;;;14.42;64.32;100712.19;4955316;28;124466;-68
2023/01/11 07:05:52;;;;;;;13.98;2.30;;;;;;;14.40;64.32;100716.75;4958044;28;113282;-67
2023/01/11 07:08:19;;;;;;;10.93;2.30;;;;;;;14.36;64.31;100740.06;4958004;28;113903;-67
2023/01/11 07:10:47;;;;;;;14.27;2.20;;;;;;;14.33;64.22;100750.06;4964488;28;124159;-67
2023/01/11 07:13:16;;;;;;;14.88;2.45;;;;;;;14.31;64.16;100746.66;4951929;28;124016;-67
2023/01/11 07:15:47;;;;;;;10.85;1.92;;;;;;;14.27;64.18;100745.13;4952727;28;114532;-67
2023/01/11 07:18:14;;;;;;;9.68;1.98;;;;;;;14.26;64.19;100743.41;4955061;28;113922;-68
2023/01/11 07:20:42;;;;;;;11.82;2.00;;;;;;;14.23;64.22;100738.28;4959422;28;123026;-67
2023/01/11 07:23:09;;;;;;;12.40;2.30;;;;;;;14.20;64.13;100744.63;4961877;28;123262;-69
2023/01/11 07:25:37;;;;;;;13.48;2.15;;;;;;;14.17;64.15;100744.84;4960391;28;115124;-68
2023/01/11 07:28:06;;;;;;;10.25;1.98;;;;;;;14.16;64.08;100749.28;4965060;28;114083;-68
2023/01/11 07:30:35;;;;;;;11.30;2.17;;;;;;;14.13;63.98;100770.81;4958585;28;124783;-68
2023/01/11 07:33:22;;;;;;;12.63;2.00;;;;;;;14.10;63.96;100760.34;4956041;28;123385;-68
2023/01/11 07:35:49;;;;;;;10.85;1.92;;;;;;;14.08;63.83;100788.88;4956722;28;114064;-67
2023/01/11 07:38:16;;;;;;;10.57;2.25;;;;;;;14.05;63.97;100789.03;4942527;28;113299;-68
2023/01/11 07:40:43;;;;;;;16.95;2.42;;;;;;;14.04;63.88;100791.81;4959607;28;124508;-68
2023/01/11 07:43:15;;;;;;;13.48;2.85;;;;;;;14.03;63.86;100782.97;4961353;28;126882;-68
2023/01/11 07:45:45;;;;;;;14.50;2.53;;;;;;;14.01;63.76;100787.53;4964116;28;113308;-68
2023/01/11 07:48:15;;;;;;;10.63;2.22;;;;;;;13.98;63.61;100782.41;4961195;28;115164;-68
2023/01/11 07:50:42;;;;;;;14.30;2.70;;;;;;;13.97;63.69;100786.00;4959808;28;122736;-68
2023/01/11 07:53:12;;;;;;;12.00;2.08;;;;;;;13.96;63.73;100800.28;4956473;28;123465;-68
2023/01/11 07:55:40;;;;;;;14.80;2.42;;;;;;;13.94;63.60;100797.69;4946308;28;113027;-68
2023/01/11 07:58:09;;;;;;;13.57;2.60;;;;;;;13.93;63.46;100803.09;4959221;28;115418;-68
2023/01/11 08:00:36;;;;;;;12.23;2.30;;;;;;;13.93;63.58;100816.44;4957337;28;123826;-68
2023/01/11 08:03:03;;;;;;;15.52;2.38;;;;;;;13.94;63.45;100823.47;4952834;28;123497;-68
2023/01/11 08:05:31;;;;;;;14.07;2.53;;;;;;;13.92;63.44;100830.66;4959085;28;114365;-68
2023/01/11 08:07:58;;;;;;;15.18;2.50;;;;;;;13.92;63.48;100846.66;4960504;28;114401;-67
2023/01/11 08:10:25;;;;;;;15.05;2.33;;;;;;;13.90;63.38;100848.53;4965762;28;123881;-68
2023/01/11 08:15:41;;;;;;;;;;;;;;;13.87;63.56;100859.41;4953626;28;114167;-68
2023/01/11 08:18:10;;;;;;;13.50;3.00;;;;;;;13.88;63.30;100861.09;4964258;28;112964;-68
2023/01/11 08:20:38;;;;;;;12.60;2.25;;;;;;;13.87;63.25;100862.06;4960144;28;123969;-68
2023/01/11 08:23:08;;;;;;;14.50;2.70;;;;;;;13.84;63.26;100865.72;4959679;28;124384;-68
2023/01/11 08:25:35;;;;;;;13.93;2.20;;;;;;;13.83;63.16;100870.22;4961377;28;114373;-68
2023/01/11 08:28:04;;;;;;;14.45;2.75;;;;;;;13.82;63.22;100867.63;4950697;28;114727;-68
2023/01/11 08:30:32;;;;;;;12.73;2.35;;;;;;;13.81;63.10;100880.09;4948391;28;124138;-68
2023/01/11 08:33:00;;;;;;;12.15;2.03;;;;;;;13.80;63.09;100886.34;4949223;28;123003;-68
2023/01/11 08:35:27;;;;;;;17.00;2.58;;;;;;;13.78;62.97;100887.41;4952036;28;115170;-68
2023/01/11 08:37:55;;;;;;;12.32;2.08;;;;;;;13.77;62.97;100907.84;4955542;28;115407;-67
2023/01/11 08:40:24;;;;;;;17.10;2.58;;;;;;;13.76;62.87;100915.91;4948945;28;125486;-67
2023/01/11 08:42:57;;;;;;;16.63;2.42;;;;;;;13.73;62.86;100916.97;4951383;28;124357;-67
2023/01/11 08:45:24;;;;;;;15.60;2.40;;;;;;;13.73;62.86;100916.97;4958480;28;114349;-68
2023/01/11 08:47:52;;;;;;;12.55;2.08;;;;;;;13.72;62.95;100909.91;4949579;28;114622;-68
2023/01/11 08:50:20;;;;;;;12.65;2.15;;;;;;;13.73;62.84;100927.59;4945770;28;124074;-68
2023/01/11 08:52:49;;;;;;;15.30;2.75;;;;;;;13.72;62.66;100925.88;4941239;28;123683;-68
2023/01/11 08:55:18;;;;;;;11.00;2.40;;;;;;;13.72;62.74;100925.88;4947266;28;113502;-68
2023/01/11 08:57:45;;;;;;;11.77;2.38;;;;;;;13.72;62.81;100925.88;4959386;28;113670;-68
2023/01/11 09:00:13;;;;;;;15.07;2.15;;;;;;;13.73;62.64;100932.94;4954588;28;124175;-68
2023/01/11 09:02:40;;;;;;;13.73;2.38;;;;;;;13.73;62.45;100932.94;4960798;28;123759;-68
2023/01/11 09:05:08;;;;;;;15.88;2.83;;;;;;;13.74;62.40;100939.94;4946975;28;114608;-67
2023/01/11 09:07:36;;;;;;;13.73;2.15;;;;;;;13.73;62.68;100943.56;4948619;28;114639;-68
2023/01/11 09:10:04;;;;;;;13.32;2.42;;;;;;;13.74;62.45;100939.09;4947839;28;124499;-67
2023/01/11 09:12:31;;;;;;;13.18;2.05;;;;;;;13.72;62.36;100947.16;4948565;28;124079;-68
2023/01/11 09:14:58;;;;;;;16.45;2.20;;;;;;;13.73;62.46;100948.91;4947583;28;113264;-67
2023/01/11 09:17:26;;;;;;;14.77;2.40;;;;;;;13.73;62.34;100948.91;4950243;28;114681;-68
2023/01/11 09:19:53;;;;;;;10.63;2.25;;;;;;;13.74;62.47;100945.28;4945410;28;124163;-68
2023/01/11 09:22:20;;;;;;;12.77;2.38;;;;;;;13.75;62.10;100951.44;4933307;28;124292;-67
2023/01/11 09:24:47;;;;;;;14.52;2.28;;;;;;;13.72;62.27;100941.84;4944339;28;115253;-68
2023/01/11 09:27:15;;;;;;;15.13;2.53;;;;;;;13.70;62.16;100943.75;4934143;28;116087;-67
2023/01/11 09:29:42;;;;;;;11.55;2.08;;;;;;;13.70;62.00;100943.75;4950056;28;124208;-67
2023/01/11 09:32:09;;;;;;;15.20;2.58;;;;;;;13.68;62.03;100945.63;4946840;28;125258;-68
2023/01/11 09:34:36;;;;;;;14.30;2.15;;;;;;;13.64;62.04;100952.06;4950873;28;114503;-68
2023/01/11 09:37:05;;;;;;;17.35;2.65;;;;;;;13.61;61.83;100949.56;4950234;28;115162;-67
2023/01/11 09:39:33;;;;;;;13.63;2.33;;;;;;;13.58;61.86;100949.72;4951274;28;125003;-67
2023/01/11 09:42:10;;;;;;;12.95;2.10;;;;;;;13.53;61.76;100967.78;4934121;28;123944;-68
2023/01/11 09:45:04;;;;;;;13.82;2.35;;;;;;;13.47;61.85;100968.97;4936043;28;114404;-67
2023/01/11 09:47:59;;;;;;;16.45;2.72;;;;;;;13.43;61.86;100968.28;4958986;28;114041;-67
2023/01/11 09:50:38;;;;;;;11.93;2.40;;;;;;;13.37;61.80;100968.63;4936546;28;124568;-67
2023/01/11 09:53:14;;;;;;;19.42;2.95;;;;;;;13.33;61.96;100979.50;4950186;28;124368;-67
2023/01/11 09:55:45;;;;;;;16.15;2.47;;;;;;;13.28;61.92;100974.41;4951679;28;114254;-68
2023/01/11 09:58:37;;;;;;;10.57;2.08;;;;;;;13.24;61.87;100978.16;4949277;28;113648;-67
2023/01/11 10:01:09;;;;;;;15.48;2.35;;;;;;;13.22;61.93;100985.38;4936131;28;124028;-67
2023/01/11 10:03:53;;;;;;;14.68;2.40;;;;;;;13.18;61.96;100983.81;4921656;28;124704;-67
2023/01/11 10:06:38;;;;;;;13.05;2.30;;;;;;;13.17;61.95;100987.44;4953041;28;114732;-67
2023/01/11 10:09:38;;;;;;;19.35;2.55;;;;;;;13.13;61.97;100985.84;4961843;28;113226;-67
2023/01/11 10:12:30;;;;;;;9.45;2.00;;;;;;;13.11;62.06;100993.06;4960545;28;123787;-67
2023/01/11 10:15:31;;;;;;;13.02;1.92;;;;;;;13.07;61.99;100997.69;4948737;28;123828;-67
2023/01/11 10:18:36;;;;;;;9.18;1.92;;;;;;;13.05;62.33;101000.44;4938719;28;115143;-67
2023/01/11 10:21:32;;;;;;;6.80;1.93;;;;;;;13.07;62.30;101002.16;4950967;28;115428;-67
2023/01/11 10:24:18;;;;;;;;;;;;;;;13.08;62.50;100998.56;4946228;28;123937;-67
2023/01/11 10:26:48;;;;;;;18.00;2.17;;;;;;;13.11;62.45;101009.00;4938465;28;123861;-67
2023/01/11 10:34:53;;;;;;;16.75;2.55;;;;;;;13.18;62.33;101015.72;4948849;28;124474;-67
2023/01/11 10:40:32;;;;;;;16.15;2.22;;;;;;;13.20;62.38;101009.41;4937508;28;114900;-68
2023/01/11 10:43:12;;;;;;;11.55;1.98;;;;;;;13.24;62.33;101015.41;4951111;28;114958;-67
2023/01/11 10:45:45;;;;;;;14.95;1.70;;;;;;;13.26;62.18;101013.53;4969495;28;123521;-68
2023/01/11 10:48:19;;;;;;;10.27;1.73;;;;;;;13.28;62.30;101011.66;4950513;28;122433;-67
2023/01/11 10:51:23;;;;;;;13.35;1.98;;;;;;;13.31;62.26;101011.50;4951161;28;114039;-67
2023/01/11 10:53:50;;;;;;;13.40;1.85;;;;;;;13.34;62.27;101022.00;4948537;28;114152;-68
2023/01/11 10:56:36;;;;;;;13.27;2.20;;;;;;;13.38;62.02;101015.56;4947412;28;124696;-68
2023/01/11 10:59:24;;;;;;;16.33;2.30;;;;;;;13.42;61.92;101003.81;4951252;28;123934;-67
2023/01/11 11:02:19;;;;;;;15.40;2.25;;;;;;;13.47;62.00;101002.69;4952472;28;114160;-68
2023/01/11 11:05:22;;;;;;;15.05;2.47;;;;;;;13.54;61.92;101001.41;4952725;28;114664;-68
2023/01/11 11:08:10;;;;;;;9.38;1.90;;;;;;;13.58;61.82;101003.84;4918816;28;124699;-68
2023/01/11 11:10:55;;;;;;;16.27;2.35;;;;;;;13.62;61.61;100993.88;4955696;28;123933;-68
2023/01/11 11:13:32;;;;;;;13.27;2.22;;;;;;;13.66;61.31;101008.75;4953130;28;115176;-68
2023/01/11 11:16:23;;;;;;;12.40;2.75;;;;;;;13.70;61.44;101009.44;4963851;28;115631;-67
2023/01/11 11:18:54;;;;;;;11.55;2.45;;;;;;;13.76;61.36;101007.25;4978284;28;123991;-68
2023/01/11 11:21:27;;;;;;;18.40;2.65;;;;;;;13.80;61.17;101011.47;4954918;28;124183;-68
2023/01/11 11:23:59;;;;;;;17.67;2.67;;;;;;;13.85;61.12;101010.38;4948207;28;114082;-67
2023/01/11 11:26:44;;;;;;;11.00;2.30;;;;;;;13.87;60.84;101000.50;4936498;28;112866;-68
2023/01/11 11:29:21;;;;;;;8.80;2.07;;;;;;;13.90;60.70;101013.63;4950724;28;123918;-68
2023/01/11 11:31:49;;;;;;;11.40;2.85;;;;;;;13.93;60.65;101008.13;4951136;28;123067;-68
2023/01/11 11:34:20;;;;;;;14.93;2.40;;;;;;;13.97;60.64;101015.00;4964175;28;113964;-67
2023/01/11 11:36:50;;;;;;;11.60;2.60;;;;;;;14.02;60.45;101018.28;4952889;28;115403;-68
2023/01/11 11:39:26;;;;;;;12.57;2.00;;;;;;;14.05;60.36;101019.88;4951153;28;124501;-68
2023/01/11 11:42:05;;;;;;;11.20;2.53;;;;;;;14.07;60.20;101021.53;4950792;28;122964;-68
2023/01/11 11:44:32;;;;;;;11.45;2.30;;;;;;;14.11;60.23;101023.06;4950440;28;113643;-67
2023/01/11 11:47:02;;;;;;;10.18;2.00;;;;;;;14.14;59.67;101017.56;4946379;28;113099;-67
2023/01/11 11:49:34;;;;;;;13.48;2.42;;;;;;;14.17;59.67;101020.06;4950370;28;123987;-68
2023/01/11 11:52:04;;;;;;;10.70;2.33;;;;;;;14.20;59.56;101027.88;4960986;28;123060;-68
2023/01/11 11:54:39;;;;;;;12.40;2.40;;;;;;;14.20;59.14;101041.19;4943657;28;113606;-68
2023/01/11 11:57:25;;;;;;;13.10;2.53;;;;;;;14.20;59.00;101033.22;4966912;28;114514;-67
2023/01/11 12:00:06;;;;;;;12.73;2.30;;;;;;;14.19;59.13;101035.94;4954127;28;123953;-68
2023/01/11 12:02:36;;;;;;;11.07;2.38;;;;;;;14.21;59.09;101029.59;4961612;28;124861;-67
2023/01/11 12:05:07;;;;;;;14.13;2.47;;;;;;;14.25;59.08;101029.41;4973773;28;115359;-67
2023/01/11 12:07:48;;;;;;;13.13;2.38;;;;;;;14.29;59.01;101020.28;4962288;28;115498;-68
2023/01/11 12:10:26;;;;;;;13.68;2.60;;;;;;;14.33;58.67;101037.81;4964654;28;124246;-68
2023/01/11 12:12:59;;;;;;;13.38;2.20;;;;;;;14.36;58.56;101037.66;4965199;28;125638;-68